Time;durP1;ratioP1;P1;durP2;ratioP2;P2;SDS_P1;SDS_P2;PMS_P1;PMS_P2;Temp;Humidity;BMP_temperature;BMP_pressure;BME280_temperature;BME280_humidity;BME280_pressure;Samples;Min_cycle;Max_cycle;Signal;HPM_P1;HPM_P2
2023/01/22 00:03:38;;;;;;;1.30;1.17;;;6.10;59.50;;;4.66;61.96;102302.13;12253558;19;20019;-87
2023/01/22 00:07:40;;;;;;;1.20;1.10;;;6.10;59.40;;;4.56;61.75;102285.78;12256750;19;20015;-88
2023/01/22 00:11:42;;;;;;;1.85;1.20;;;6.20;59.40;;;4.68;61.76;102305.56;12254595;19;20018;-87
2023/01/22 00:15:45;;;;;;;1.75;1.38;;;6.10;59.40;;;4.59;61.87;102279.75;12255147;19;20006;-88
2023/01/22 00:19:46;;;;;;;1.38;1.25;;;6.30;59.50;;;4.72;61.93;102291.75;12256826;19;20018;-87
2023/01/22 00:23:48;;;;;;;1.23;1.13;;;6.10;59.30;;;4.59;61.70;102280.63;12255272;19;20010;-87
2023/01/22 00:27:49;;;;;;;1.80;1.50;;;6.10;59.40;;;4.59;61.69;102279.75;12254678;19;20022;-87
2023/01/22 00:31:51;;;;;;;2.15;1.65;;;6.10;59.50;;;4.21;61.69;102226.47;12253630;19;20460;-87
2023/01/22 00:35:53;;;;;;;2.28;1.60;;;6.10;59.30;;;4.62;61.61;102298.72;12252357;19;20558;-88
2023/01/22 00:39:56;;;;;;;1.80;1.70;;;6.40;59.60;;;4.54;61.69;102286.69;12253785;19;20023;-87
2023/01/22 00:43:58;;;;;;;1.90;1.45;;;6.20;59.40;;;4.61;61.93;102301.28;12250544;19;20019;-88
2023/01/22 00:48:00;;;;;;;1.98;1.70;;;6.40;59.50;;;4.39;61.95;102269.50;12253472;19;20042;-87
2023/01/22 00:52:02;;;;;;;2.40;1.33;;;6.00;59.40;;;4.59;61.83;102301.31;12254684;19;20632;-88
2023/01/22 00:56:04;;;;;;;1.80;1.70;;;6.00;59.40;;;4.13;61.87;102213.59;12250334;19;20007;-87
2023/01/22 01:00:07;;;;;;;1.70;1.60;;;6.00;59.50;;;4.52;62.00;102286.69;12249753;19;20011;-87
2023/01/22 01:04:09;;;;;;;1.77;1.50;;;6.00;59.30;;;4.61;61.81;102298.72;12251892;19;20006;-87
2023/01/22 01:08:10;;;;;;;1.45;1.35;;;6.20;59.40;;;4.63;61.78;102303.00;12253571;19;20031;-87
2023/01/22 01:12:13;;;;;;;2.60;1.50;;;6.00;59.40;;;4.60;61.78;102303.03;12251614;19;20057;-87
2023/01/22 01:16:20;;;;;;;2.58;1.60;;;6.00;59.50;;;4.55;61.78;102301.34;12247625;19;20147;-87
2023/01/22 01:20:22;;;;;;;1.85;1.50;;;6.00;59.40;;;4.37;61.87;102269.50;12248713;19;20019;-87
2023/01/22 01:24:24;;;;;;;1.70;1.60;;;6.00;59.50;;;4.52;61.89;102297.03;12249123;19;20397;-87
2023/01/22 01:28:27;;;;;;;1.88;1.67;;;6.10;59.60;;;4.32;61.99;102273.84;12251965;19;20010;-87
2023/01/22 01:32:29;;;;;;;1.77;1.63;;;6.00;59.60;;;4.59;62.08;102322.00;12248964;19;20114;-87
2023/01/22 01:36:31;;;;;;;1.60;1.50;;;6.00;59.70;;;4.53;61.93;102318.56;12246623;19;20015;-87
2023/01/22 01:40:34;;;;;;;2.30;1.75;;;6.00;59.60;;;4.52;61.82;102314.28;12249003;19;20017;-87
2023/01/22 01:44:36;;;;;;;2.13;1.67;;;6.20;59.80;;;4.49;62.16;102311.72;12244101;19;20018;-87
2023/01/22 01:48:44;;;;;;;2.13;1.90;;;6.00;59.50;;;4.13;61.91;102256.66;12248176;19;20086;-87
2023/01/22 01:52:47;;;;;;;2.22;1.60;;;6.20;59.80;;;4.55;61.95;102319.44;12251334;19;20017;-87
2023/01/22 01:56:54;;;;;;;1.88;1.70;;;6.00;59.50;;;4.57;62.13;102326.31;12242134;19;20014;-87
2023/01/22 02:01:12;;;;;;;3.50;1.92;;;6.30;59.70;;;4.55;61.80;102328.06;12246945;19;20026;-87
2023/01/22 02:05:19;;;;;;;2.40;1.70;;;6.00;59.60;;;4.59;61.90;102331.47;12246172;19;20015;-87
2023/01/22 02:09:24;;;;;;;1.50;1.40;;;6.10;59.50;;;4.57;61.79;102318.56;12245681;19;20353;-87
2023/01/22 02:13:30;;;;;;;2.47;1.95;;;6.10;59.60;;;4.39;61.82;102285.03;12248254;19;20078;-87
2023/01/22 02:17:34;;;;;;;3.08;1.98;;;6.10;59.50;;;4.39;61.95;102279.84;12246352;19;20345;-87
2023/01/22 02:21:43;;;;;;;1.77;1.50;;;6.10;59.60;;;4.60;61.89;102323.72;12244061;19;20360;-87
2023/01/22 02:25:45;;;;;;;2.30;1.77;;;6.10;59.50;;;4.70;61.91;102336.59;12240338;19;20011;-87
2023/01/22 02:29:48;;;;;;;2.17;1.70;;;6.20;59.50;;;4.63;62.06;102328.88;12246721;19;20018;-87
2023/01/22 02:33:50;;;;;;;2.88;1.45;;;6.10;59.80;;;4.69;61.86;102333.16;12245465;19;20015;-87
2023/01/22 02:37:52;;;;;;;3.03;2.00;;;6.10;59.40;;;4.70;62.04;102340.06;12246193;19;20450;-87
2023/01/22 02:41:53;;;;;;;1.98;1.77;;;6.10;59.60;;;4.64;61.87;102324.56;12243996;19;20082;-87
2023/01/22 02:45:56;;;;;;;2.15;1.95;;;6.10;59.60;;;4.61;61.95;102337.50;12242649;19;20019;-88
2023/01/22 02:49:58;;;;;;;1.88;1.60;;;6.10;59.50;;;4.35;61.95;102286.78;12246607;19;20023;-87
2023/01/22 02:53:59;;;;;;;1.85;1.67;;;6.00;59.50;;;4.54;61.97;102320.31;12243278;19;20022;-87
2023/01/22 02:58:01;;;;;;;1.85;1.45;;;6.10;59.50;;;4.67;61.96;102350.41;12245859;19;20044;-87
2023/01/22 03:02:03;;;;;;;2.03;1.85;;;6.10;59.50;;;4.66;61.90;102353.88;12241193;19;20528;-87
2023/01/22 03:06:05;;;;;;;1.55;1.45;;;6.20;59.60;;;4.33;62.10;102297.97;12241799;19;20007;-87
2023/01/22 03:10:17;;;;;;;1.60;1.50;;;6.10;59.50;;;4.64;62.11;102355.59;12245702;19;20014;-87
2023/01/22 03:23:01;;;;;;;2.17;1.98;;;6.00;59.60;;;4.63;61.92;102357.34;12245082;19;20027;-87
2023/01/22 03:27:03;;;;;;;1.98;1.83;;;6.10;59.50;;;4.60;62.10;102359.94;12244476;19;20036;-87
2023/01/22 03:31:07;;;;;;;2.20;1.65;;;6.00;59.40;;;4.62;62.02;102359.94;12243628;19;20021;-87
2023/01/22 03:35:08;;;;;;;2.17;1.70;;;6.10;59.40;;;4.46;61.86;102330.69;12240113;19;20768;-87
2023/01/22 03:39:25;;;;;;;2.15;1.88;;;6.00;59.40;;;4.58;61.92;102355.63;12254952;19;20476;-87
2023/01/22 03:43:28;;;;;;;2.13;1.65;;;6.00;59.40;;;4.61;61.88;102363.38;12254943;19;20011;-87
2023/01/22 03:47:30;;;;;;;3.15;1.90;;;6.00;59.40;;;4.57;62.24;102359.09;12256477;19;20086;-87
2023/01/22 03:51:33;;;;;;;1.85;1.75;;;6.00;59.40;;;4.53;62.17;102353.06;12257418;19;20018;-87
2023/01/22 03:55:35;;;;;;;2.25;1.85;;;6.00;59.40;;;4.57;62.02;102362.53;12247474;19;20468;-87
2023/01/22 03:59:37;;;;;;;2.20;2.00;;;6.30;59.50;;;4.47;62.00;102342.75;12253163;19;20082;-87
2023/01/22 04:03:40;;;;;;;2.30;2.10;;;6.00;59.50;;;4.52;62.09;102366.03;12251485;19;20029;-87
2023/01/22 04:07:42;;;;;;;2.75;2.05;;;6.00;59.50;;;4.51;61.97;102366.88;12253151;19;20523;-87
2023/01/22 04:11:44;;;;;;;2.83;2.55;;;6.20;59.60;;;4.42;62.08;102360.00;12253721;19;20019;-87
2023/01/22 04:15:48;;;;;;;2.95;2.58;;;6.00;59.50;;;4.21;62.18;102328.19;12253030;19;20740;-87
2023/01/22 04:20:16;;;;;;;2.78;2.20;;;5.90;59.60;;;4.51;62.27;102379.78;12254713;19;20011;-87
2023/01/22 04:24:22;;;;;;;2.85;1.85;;;5.90;59.50;;;4.52;62.25;102390.16;12253201;19;20700;-86
2023/01/22 04:28:24;;;;;;;2.60;2.40;;;5.90;59.50;;;4.51;62.13;102395.31;12253339;19;20013;-87
2023/01/22 04:32:29;;;;;;;2.78;2.28;;;6.00;59.60;;;4.28;62.29;102352.28;12254953;19;20479;-87
2023/01/22 04:36:38;;;;;;;3.00;2.38;;;6.00;59.50;;;4.33;62.23;102362.63;12248069;19;20018;-87
2023/01/22 04:40:40;;;;;;;2.95;2.22;;;6.00;59.50;;;4.41;62.04;102387.59;12250696;19;20019;-87
2023/01/22 04:44:42;;;;;;;2.38;2.15;;;6.20;59.60;;;4.17;62.17;102348.88;12248094;19;20026;-87
2023/01/22 04:48:45;;;;;;;1.80;1.70;;;5.90;59.40;;;4.48;62.09;102403.94;12248312;19;20023;-87
2023/01/22 04:52:50;;;;;;;2.00;1.80;;;6.00;59.50;;;4.53;62.19;102420.31;12251451;19;20027;-87
2023/01/22 04:56:52;;;;;;;3.55;2.22;;;6.00;59.40;;;4.43;62.13;102400.53;12251990;19;20011;-87
2023/01/22 05:00:58;;;;;;;2.83;2.15;;;5.90;59.40;;;4.21;62.16;102376.44;12250264;19;20014;-86
2023/01/22 05:05:00;;;;;;;2.55;2.33;;;6.00;59.60;;;4.43;62.16;102421.22;12248433;19;20806;-87
2023/01/22 05:09:03;;;;;;;3.00;2.50;;;5.90;59.50;;;4.29;62.08;102394.53;12251904;19;20011;-86
2023/01/22 05:13:12;;;;;;;2.70;2.50;;;5.90;59.50;;;4.43;62.03;102419.50;12250547;19;20472;-87
2023/01/22 05:17:14;;;;;;;2.20;2.05;;;6.00;59.70;;;4.51;62.02;102442.78;12252985;19;20018;-86
2023/01/22 05:21:16;;;;;;;2.88;2.60;;;6.10;59.70;;;4.49;62.13;102438.47;12249456;19;20029;-86
2023/01/22 05:25:17;;;;;;;5.10;2.35;;;5.90;59.60;;;4.43;62.33;102429.84;12245592;19;20014;-87
2023/01/22 05:29:24;;;;;;;2.10;1.90;;;5.90;59.60;;;4.28;62.36;102403.16;12250175;19;20010;-87
2023/01/22 05:33:52;;;;;;;2.45;2.15;;;5.90;59.50;;;4.42;62.30;102451.38;12247157;19;20018;-87
2023/01/22 05:37:55;;;;;;;2.45;2.03;;;5.90;59.50;;;4.42;62.12;102453.13;12249628;19;20377;-87
2023/01/22 05:41:58;;;;;;;2.92;2.40;;;5.90;59.50;;;4.46;62.25;102460.03;12246607;19;20043;-87
2023/01/22 05:46:00;;;;;;;3.45;2.30;;;5.90;59.60;;;4.42;62.37;102466.03;12248232;19;20460;-87
2023/01/22 05:50:34;;;;;;;1.88;1.77;;;5.90;59.50;;;4.46;62.15;102478.13;12251555;19;20006;-87
2023/01/22 05:54:44;;;;;;;2.05;1.85;;;6.00;59.60;;;4.41;62.30;102470.38;12247305;19;20007;-87
2023/01/22 05:58:45;;;;;;;2.28;2.08;;;5.90;59.50;;;4.41;62.12;102470.38;12247279;19;20077;-87
2023/01/22 06:02:48;;;;;;;2.47;2.28;;;5.90;59.50;;;4.29;62.16;102446.22;12245181;19;20011;-87
2023/01/22 06:06:50;;;;;;;2.83;2.05;;;5.90;59.50;;;4.38;62.44;102467.78;12243906;19;20018;-87
2023/01/22 06:11:03;;;;;;;2.08;1.88;;;5.90;59.60;;;4.42;62.33;102479.84;12247724;19;20025;-87
2023/01/22 06:15:06;;;;;;;2.88;2.40;;;5.90;59.60;;;4.35;62.37;102464.34;12246126;19;20362;-87
2023/01/22 06:19:11;;;;;;;2.65;2.25;;;5.90;59.60;;;4.47;62.33;102491.91;12245085;19;20100;-87
2023/01/22 06:23:26;;;;;;;;;;;5.90;59.50;;;4.40;62.14;102485.88;12247291;19;20044;-87
2023/01/22 06:27:28;;;;;;;2.25;2.00;;;5.90;59.60;;;4.42;62.37;102485.00;12245372;19;19918;-86
2023/01/22 06:31:35;;;;;;;2.80;2.40;;;5.90;59.50;;;4.20;62.04;102457.47;12247867;19;20010;-87
2023/01/22 06:35:41;;;;;;;2.70;2.42;;;6.00;59.60;;;4.42;62.38;102503.13;12245246;19;20019;-87
2023/01/22 06:39:43;;;;;;;2.85;2.60;;;6.00;59.60;;;4.38;62.36;102478.13;12245399;19;20007;-87
2023/01/22 06:43:55;;;;;;;2.80;2.60;;;5.90;59.50;;;4.23;62.19;102467.78;12243543;19;20019;-86
2023/01/22 06:47:56;;;;;;;2.42;2.10;;;5.90;59.60;;;3.91;62.46;102406.63;12245845;19;20020;-87
2023/01/22 06:51:58;;;;;;;3.05;2.75;;;5.90;59.60;;;4.43;62.35;102502.28;12248899;19;20022;-87
2023/01/22 06:56:01;;;;;;;3.03;2.30;;;5.90;59.60;;;4.10;62.18;102447.97;12241882;19;20010;-87
2023/01/22 07:00:05;;;;;;;3.40;2.83;;;5.90;59.60;;;4.29;62.21;102482.44;12243920;19;20015;-86
2023/01/22 07:04:07;;;;;;;3.80;2.80;;;5.90;59.70;;;4.32;62.41;102493.66;12244514;19;20361;-86
2023/01/22 07:08:14;;;;;;;2.60;2.38;;;6.20;59.70;;;4.48;62.29;102522.94;12246741;19;20416;-86
2023/01/22 07:12:16;;;;;;;3.35;3.00;;;5.90;59.60;;;4.51;62.49;102532.41;12250904;19;20480;-86
2023/01/22 07:16:17;;;;;;;3.30;2.70;;;5.90;59.60;;;4.46;62.30;102526.41;12253706;19;20533;-86
2023/01/22 07:20:21;;;;;;;2.75;2.30;;;5.90;59.60;;;4.49;62.49;102547.97;12256709;19;20022;-89
2023/01/22 07:24:23;;;;;;;3.13;2.78;;;6.10;59.70;;;4.48;62.47;102542.78;12259103;19;20013;-88
2023/01/22 07:28:25;;;;;;;3.55;2.78;;;5.90;59.60;;;4.49;62.39;102535.03;12260017;19;20484;-90
2023/01/22 07:32:26;;;;;;;4.00;3.03;;;5.90;59.60;;;4.29;62.23;102511.75;12257800;19;20018;-87
2023/01/22 07:36:28;;;;;;;3.05;2.70;;;6.00;59.70;;;4.44;62.25;102545.38;12247261;19;20018;-86
2023/01/22 07:40:30;;;;;;;2.88;2.30;;;6.00;59.70;;;4.38;62.25;102540.19;12256804;19;20014;-86
2023/01/22 07:44:32;;;;;;;2.72;2.40;;;5.90;59.50;;;4.57;62.34;102576.41;12256888;19;20103;-85
2023/01/22 07:48:34;;;;;;;2.53;2.30;;;6.00;59.50;;;4.59;62.50;102582.44;12258026;19;20023;-85
2023/01/22 07:52:35;;;;;;;2.45;2.25;;;5.90;59.50;;;4.52;62.26;102560.03;12260501;19;20006;-88
2023/01/22 07:56:37;;;;;;;3.88;2.53;;;6.00;59.50;;;4.54;62.52;102566.94;12251026;19;20022;-87
2023/01/22 08:00:39;;;;;;;4.60;2.78;;;6.00;59.60;;;4.46;62.45;102558.31;12256195;19;20132;-85
2023/01/22 08:04:41;;;;;;;2.90;2.60;;;6.00;59.50;;;4.54;62.36;102573.84;12253123;19;20424;-85
2023/01/22 08:08:43;;;;;;;3.30;3.00;;;6.20;59.60;;;4.51;62.19;102577.28;12257224;19;20011;-86
2023/01/22 08:12:45;;;;;;;3.92;3.08;;;6.00;59.70;;;4.54;62.31;102587.63;12257421;19;20023;-86
2023/01/22 08:16:46;;;;;;;2.83;2.50;;;6.20;59.70;;;4.57;62.33;102595.38;12248955;19;20505;-85
2023/01/22 08:20:48;;;;;;;2.80;2.60;;;6.00;59.50;;;4.56;62.40;102597.97;12254747;19;20014;-86
2023/01/22 08:24:49;;;;;;;2.83;2.33;;;6.20;59.60;;;4.34;62.31;102556.56;12252423;19;20025;-90
2023/01/22 08:28:51;;;;;;;2.92;2.65;;;6.00;59.60;;;4.60;62.35;102604.88;12254636;19;20007;-86
2023/01/22 08:32:54;;;;;;;3.33;2.67;;;6.00;59.60;;;4.58;62.52;102602.28;12250120;19;20006;-87
2023/01/22 08:36:55;;;;;;;3.60;2.70;;;6.00;59.50;;;4.44;62.24;102581.56;12251463;19;20126;-89
2023/01/22 08:40:57;;;;;;;4.53;3.33;;;6.00;59.60;;;4.62;62.54;102616.09;12252414;19;20038;-86
2023/01/22 08:44:58;;;;;;;3.63;3.20;;;6.10;59.60;;;4.62;62.40;102621.28;12250779;19;20013;-85
2023/01/22 08:49:02;;;;;;;3.58;2.72;;;6.30;59.80;;;4.32;62.29;102573.84;12253597;19;20014;-86
2023/01/22 08:53:04;;;;;;;3.80;2.87;;;6.10;59.60;;;4.61;62.45;102624.69;12247251;19;20070;-86
2023/01/22 08:57:06;;;;;;;3.42;2.85;;;6.10;59.60;;;4.63;62.49;102631.59;12253778;19;20368;-88
2023/01/22 09:01:15;;;;;;;4.00;3.20;;;6.30;59.70;;;4.63;62.41;102633.34;12239788;19;20021;-85
2023/01/22 09:05:17;;;;;;;3.15;2.85;;;6.10;59.60;;;4.68;62.53;102638.53;12248392;19;20054;-85
2023/01/22 09:09:18;;;;;;;4.68;3.50;;;6.10;59.70;;;4.59;62.51;102632.47;12256667;19;20023;-85
2023/01/22 09:13:20;;;;;;;3.47;3.17;;;6.10;59.80;;;4.38;62.59;102611.75;12256935;19;20682;-85
2023/01/22 09:17:22;;;;;;;4.05;3.05;;;6.10;59.70;;;4.53;62.53;102629.88;12256062;19;20007;-85
2023/01/22 09:21:23;;;;;;;3.67;3.03;;;6.10;59.70;;;4.61;62.66;102651.44;12247484;19;20568;-86
2023/01/22 09:25:25;;;;;;;3.33;2.95;;;6.10;59.70;;;4.55;62.47;102640.22;12252180;19;20022;-85
2023/01/22 09:29:26;;;;;;;3.63;3.10;;;6.10;59.70;;;4.64;62.59;102660.91;12256074;19;20038;-86
2023/01/22 09:33:28;;;;;;;3.65;3.35;;;6.10;59.70;;;4.66;62.62;102661.78;12250984;19;20497;-85
2023/01/22 09:37:29;;;;;;;3.92;3.53;;;6.10;59.80;;;4.64;62.40;102660.91;12254319;19;20013;-85
2023/01/22 09:41:38;;;;;;;5.28;3.60;;;6.10;59.70;;;4.62;62.58;102666.09;12252771;19;20018;-85
2023/01/22 09:45:40;;;;;;;5.10;3.72;;;6.10;59.60;;;4.66;62.68;102664.38;12252941;19;20024;-85
2023/01/22 09:49:56;;;;;;;3.28;2.92;;;6.20;59.70;;;4.61;62.48;102663.50;12254486;19;20027;-86
2023/01/22 09:54:02;;;;;;;4.93;3.70;;;6.10;59.70;;;4.55;62.35;102650.56;12252851;19;20014;-85
2023/01/22 09:58:08;;;;;;;4.13;3.35;;;6.10;59.70;;;4.66;62.53;102670.41;12244807;19;20033;-85
2023/01/22 10:02:41;;;;;;;4.75;3.33;;;6.10;59.70;;;4.65;62.54;102662.66;12243224;19;20025;-85
2023/01/22 10:06:44;;;;;;;4.03;3.45;;;6.10;59.70;;;4.63;62.65;102659.19;12243738;19;20915;-86
2023/01/22 10:10:47;;;;;;;4.45;3.55;;;6.10;59.70;;;4.65;62.74;102660.06;12250687;19;20018;-86
2023/01/22 10:14:50;;;;;;;4.70;3.78;;;6.20;59.80;;;4.68;62.32;102670.41;12251931;19;20021;-86
2023/01/22 10:19:17;;;;;;;3.97;3.15;;;6.20;59.80;;;4.70;62.62;102675.59;12249818;19;20015;-85
2023/01/22 10:23:24;;;;;;;3.45;3.10;;;6.10;59.80;;;4.56;62.53;102653.16;12248328;19;20534;-90
2023/01/22 10:27:40;;;;;;;3.20;2.78;;;6.10;59.70;;;4.62;62.75;102663.53;12247270;19;20011;-88
2023/01/22 10:31:49;;;;;;;3.95;3.30;;;6.20;59.80;;;4.52;62.56;102641.09;12247635;19;20010;-86
2023/01/22 10:35:55;;;;;;;4.63;3.85;;;6.20;59.80;;;4.80;62.64;102678.19;12250011;19;20023;-86
2023/01/22 10:39:58;;;;;;;3.10;2.80;;;6.40;60.00;;;4.57;62.67;102628.16;12255066;19;20018;-86
2023/01/22 10:44:27;;;;;;;3.63;2.92;;;6.40;60.00;;;4.80;62.80;102673.00;12251513;19;20014;-86
2023/01/22 10:48:28;;;;;;;3.22;2.92;;;6.30;60.50;;;4.88;62.57;102665.25;12253077;19;20010;-87
2023/01/22 10:52:43;;;;;;;3.95;3.55;;;6.30;59.80;;;4.91;62.74;102670.41;12253215;19;20014;-86
2023/01/22 10:56:45;;;;;;;3.85;2.97;;;6.40;60.10;;;4.88;62.72;102663.50;12248069;19;20021;-87
2023/01/22 11:01:05;;;;;;;3.40;3.05;;;6.40;59.90;;;4.88;62.55;102665.25;12250105;19;20002;-86
2023/01/22 11:05:21;;;;;;;3.33;2.97;;;6.40;60.10;;;4.85;62.52;102662.66;12253769;19;20011;-87
2023/01/22 11:09:48;;;;;;;3.72;3.42;;;6.40;60.00;;;4.90;62.72;102663.53;12257755;19;20016;-85
2023/01/22 11:14:21;;;;;;;3.55;3.05;;;6.40;59.90;;;4.98;62.62;102673.88;12252094;19;20062;-85
2023/01/22 11:18:32;;;;;;;5.03;3.60;;;6.50;59.90;;;4.88;62.60;102658.34;12250077;19;20026;-87
2023/01/22 11:22:39;;;;;;;3.65;3.30;;;6.40;59.90;;;4.86;62.57;102661.78;12248428;19;20085;-86
2023/01/22 11:27:09;;;;;;;3.90;3.50;;;6.50;59.90;;;4.99;62.70;102681.63;12250399;19;20011;-86
2023/01/22 11:32:10;;;;;;;6.80;4.18;;;6.40;59.80;;;4.99;62.62;102675.59;12260975;19;20006;-86
2023/01/22 11:36:46;;;;;;;5.22;4.10;;;6.50;60.10;;;4.52;62.56;102602.28;12253309;19;20010;-86
2023/01/22 11:41:18;;;;;;;3.17;2.85;;;6.50;59.90;;;4.63;62.75;102616.06;12246018;19;20464;-85
2023/01/22 11:46:01;;;;;;;4.03;2.85;;;6.50;59.80;;;5.03;62.61;102675.59;12244086;19;20021;-85
2023/01/22 11:50:19;;;;;;;3.83;3.13;;;6.50;59.90;;;5.06;62.79;102672.16;12242590;19;20762;-85
2023/01/22 11:55:10;;;;;;;4.07;3.40;;;6.50;59.80;;;4.87;62.75;102643.69;12244743;19;20006;-87
2023/01/22 11:59:32;;;;;;;3.90;3.50;;;6.50;59.80;;;5.07;62.58;102668.69;12250428;19;20050;-86
2023/01/22 12:04:14;;;;;;;5.20;4.03;;;6.50;59.90;;;5.06;62.59;102672.16;12259351;19;20029;-88
2023/01/22 12:08:42;;;;;;;4.80;3.65;;;6.50;59.80;;;5.06;62.77;102672.16;12262121;19;20029;-89
2023/01/22 12:13:16;;;;;;;5.00;3.58;;;6.50;59.70;;;5.07;62.61;102676.44;12257873;19;20464;-88
2023/01/22 12:17:45;;;;;;;4.25;3.33;;;6.70;59.90;;;5.05;62.79;102685.94;12258156;19;20014;-87
2023/01/22 12:22:08;;;;;;;4.68;3.75;;;6.50;59.70;;;4.98;62.66;102666.13;12257802;19;20029;-89
2023/01/22 12:26:18;;;;;;;4.47;3.40;;;6.50;59.80;;;5.06;62.66;102685.94;12251840;19;20019;-88
2023/01/22 12:30:27;;;;;;;4.72;3.33;;;6.50;59.80;;;5.05;62.65;102679.06;12255637;19;20025;-88
2023/01/22 12:35:04;;;;;;;4.80;3.80;;;6.50;59.70;;;5.01;62.79;102668.69;12254808;19;20011;-88
2023/01/22 12:39:27;;;;;;;5.15;4.20;;;6.50;59.70;;;4.97;62.64;102672.13;12254833;19;20759;-88
2023/01/22 12:43:45;;;;;;;4.55;4.00;;;6.50;59.70;;;4.66;62.73;102621.25;12255708;19;20014;-89
2023/01/22 12:48:27;;;;;;;6.13;4.22;;;6.50;59.70;;;5.05;62.72;102691.13;12255642;19;20015;-88
2023/01/22 12:52:34;;;;;;;6.80;4.45;;;6.50;59.90;;;5.01;62.81;102682.50;12256489;19;20006;-88
2023/01/22 12:56:36;;;;;;;4.25;3.85;;;6.50;59.70;;;5.04;62.81;102689.41;12253344;19;20006;-87
2023/01/22 13:00:38;;;;;;;5.72;4.55;;;6.50;59.80;;;4.62;62.68;102621.28;12254526;19;20106;-86
2023/01/22 13:04:40;;;;;;;4.70;3.78;;;6.50;59.80;;;4.99;62.74;102673.00;12250164;19;20010;-87
2023/01/22 13:08:43;;;;;;;4.82;4.32;;;6.70;59.90;;;4.60;62.82;102604.88;12252068;19;20006;-87
2023/01/22 13:12:50;;;;;;;5.80;4.68;;;6.70;59.90;;;5.00;62.61;102666.97;12255723;19;20011;-87
2023/01/22 13:16:58;;;;;;;5.93;4.70;;;6.70;59.90;;;4.94;62.62;102661.78;12253123;19;20373;-88
2023/01/22 13:21:08;;;;;;;5.88;4.60;;;6.50;59.90;;;4.97;62.76;102675.63;12251094;19;20542;-90
2023/01/22 13:25:30;;;;;;;4.70;3.92;;;6.50;59.80;;;4.93;62.54;102667.84;12248359;19;20467;-88
2023/01/22 13:29:36;;;;;;;6.35;4.40;;;6.50;59.80;;;5.06;62.58;102690.28;12253021;19;20338;-88
2023/01/22 13:33:37;;;;;;;4.68;3.90;;;6.50;59.90;;;4.95;62.60;102666.13;12251698;19;20046;-87
2023/01/22 13:37:42;;;;;;;5.53;3.65;;;6.50;59.70;;;4.71;62.91;102625.56;12254853;19;20007;-87
2023/01/22 13:41:50;;;;;;;4.93;4.30;;;6.50;59.80;;;4.74;62.82;102631.59;12250735;19;20023;-86
2023/01/22 13:45:55;;;;;;;5.85;4.68;;;6.50;59.90;;;4.64;62.71;102637.63;12250602;19;20007;-87
2023/01/22 13:49:57;;;;;;;6.20;4.78;;;6.50;59.80;;;4.68;62.75;102634.19;12250973;19;20387;-86
2023/01/22 13:53:59;;;;;;;4.93;3.75;;;6.50;59.90;;;4.52;62.78;102620.38;12249807;19;21093;-87
2023/01/22 13:58:03;;;;;;;4.32;3.60;;;6.50;59.70;;;4.96;62.68;102698.91;12250886;19;20464;-86
2023/01/22 14:02:29;;;;;;;4.60;3.97;;;6.50;59.80;;;4.66;62.84;102641.09;12248622;19;20472;-87
2023/01/22 14:06:48;;;;;;;4.35;3.85;;;6.50;59.80;;;4.80;62.71;102662.66;12248279;19;20416;-87
2023/01/22 14:10:59;;;;;;;4.80;3.65;;;6.50;59.80;;;4.95;62.76;102687.69;12249688;19;20014;-88
2023/01/22 14:15:00;;;;;;;5.28;3.80;;;6.50;59.80;;;5.07;62.63;102704.94;12248637;19;20015;-87
2023/01/22 14:19:02;;;;;;;4.65;3.72;;;6.50;59.80;;;5.06;62.87;102696.31;12249937;19;20022;-87
2023/01/22 14:23:04;;;;;;;5.03;4.22;;;6.50;59.70;;;5.03;62.65;102701.50;12242404;19;20077;-87
2023/01/22 14:27:06;;;;;;;5.18;4.53;;;6.60;59.80;;;5.09;62.70;102703.22;12246863;19;20047;-87
2023/01/22 14:31:07;;;;;;;5.65;3.72;;;6.50;59.80;;;4.85;62.82;102670.41;12243593;19;20081;-87
2023/01/22 14:35:19;;;;;;;5.28;4.43;;;6.50;59.70;;;5.08;62.80;102715.31;12246338;19;20022;-88
2023/01/22 14:39:20;;;;;;;5.43;4.43;;;6.50;59.70;;;5.06;62.88;102711.00;12247505;19;20484;-88
2023/01/22 14:43:22;;;;;;;4.32;3.70;;;6.50;59.70;;;5.06;62.95;102718.75;12247150;19;20529;-88
2023/01/22 14:47:24;;;;;;;5.68;4.15;;;6.50;59.70;;;4.99;62.87;102698.91;12250164;19;20723;-88
2023/01/22 14:51:26;;;;;;;5.10;4.13;;;6.50;59.70;;;5.07;62.81;102721.31;12249419;19;20014;-88
2023/01/22 14:55:28;;;;;;;7.40;5.22;;;6.50;59.70;;;5.10;62.64;102723.06;12245892;19;20019;-88
2023/01/22 14:59:30;;;;;;;9.07;5.95;;;6.50;59.70;;;5.15;62.77;102734.28;12248583;19;20010;-87
2023/01/22 15:03:32;;;;;;;7.40;5.32;;;6.60;59.70;;;5.15;62.77;102741.19;12248130;19;20015;-88
2023/01/22 15:07:34;;;;;;;6.70;4.75;;;6.60;59.70;;;5.05;62.82;102729.97;12247130;19;20397;-88
2023/01/22 15:11:36;;;;;;;7.63;5.38;;;6.50;59.60;;;5.05;62.78;102732.53;12248900;19;20475;-88
2023/01/22 15:15:38;;;;;;;6.28;5.55;;;6.50;59.70;;;5.02;62.77;102729.97;12242795;19;20011;-87
2023/01/22 15:19:40;;;;;;;8.95;6.68;;;6.60;59.80;;;4.97;62.67;102726.50;12247074;19;20014;-88
2023/01/22 15:23:42;;;;;;;7.55;5.15;;;6.50;59.70;;;4.91;62.67;102710.97;12245730;19;20029;-88
2023/01/22 15:27:44;;;;;;;9.35;6.38;;;6.50;59.70;;;5.00;62.81;102723.94;12245501;19;20022;-87
2023/01/22 15:31:45;;;;;;;7.70;5.95;;;6.50;59.70;;;5.08;62.83;102751.56;12247963;19;20021;-87
2023/01/22 15:35:47;;;;;;;8.75;5.97;;;6.50;59.70;;;5.08;62.71;102761.06;12253987;19;20354;-87
2023/01/22 15:39:48;;;;;;;9.57;6.10;;;6.50;59.80;;;4.79;62.88;102717.88;12259508;19;20011;-88
2023/01/22 15:43:53;;;;;;;9.48;6.72;;;6.50;59.80;;;5.00;62.75;102762.78;12255513;19;20014;-88
2023/01/22 15:47:56;;;;;;;11.05;8.02;;;6.50;59.80;;;4.49;62.74;102685.06;12256416;19;20022;-88
2023/01/22 15:51:57;;;;;;;12.85;7.43;;;6.60;59.90;;;4.87;62.71;102756.72;12258266;19;20023;-88
2023/01/22 15:56:01;;;;;;;10.18;6.38;;;6.40;59.90;;;4.94;62.83;102778.28;12251148;19;20345;-88
2023/01/22 16:00:04;;;;;;;7.68;5.35;;;6.40;59.90;;;4.96;62.89;102792.09;12257785;19;20038;-88
2023/01/22 16:04:13;;;;;;;7.38;5.05;;;6.40;59.90;;;4.90;62.85;102786.91;12254706;19;20489;-88
2023/01/22 16:08:15;;;;;;;9.27;5.95;;;6.40;59.80;;;4.97;62.71;102801.56;12256541;19;20082;-88
2023/01/22 16:12:17;;;;;;;9.40;6.43;;;6.40;59.90;;;4.80;63.00;102781.72;12254313;19;20455;-88
2023/01/22 16:16:31;;;;;;;9.88;6.45;;;6.40;59.90;;;4.96;62.74;102805.03;12252860;19;20034;-88
2023/01/22 16:20:33;;;;;;;8.75;6.10;;;6.40;59.90;;;4.98;62.88;102805.91;12253626;19;20014;-88
2023/01/22 16:24:35;;;;;;;9.07;6.30;;;6.40;59.90;;;4.94;62.77;102814.53;12251567;19;20714;-88
2023/01/22 16:28:37;;;;;;;8.63;5.85;;;6.40;59.90;;;4.91;62.99;102801.56;12255215;19;20006;-87
2023/01/22 16:32:41;;;;;;;8.63;5.75;;;6.40;59.90;;;4.93;62.95;102810.22;12257076;19;20011;-87
2023/01/22 16:36:43;;;;;;;6.63;5.30;;;6.40;59.90;;;4.91;62.89;102810.19;12248577;19;20033;-88
2023/01/22 16:40:45;;;;;;;7.63;5.50;;;6.40;59.90;;;4.75;62.81;102788.63;12251045;19;20369;-87
2023/01/22 16:44:48;;;;;;;5.38;4.22;;;6.40;59.90;;;4.92;62.82;102817.13;12250093;19;20018;-90
2023/01/22 16:48:56;;;;;;;7.63;5.32;;;6.30;59.90;;;4.94;62.82;102825.78;12254398;19;20122;-89
2023/01/22 16:52:58;;;;;;;7.00;4.90;;;6.50;59.90;;;4.61;62.94;102764.41;12253140;19;20511;-88
2023/01/22 16:57:05;;;;;;;6.47;4.80;;;6.30;59.80;;;4.96;62.92;102836.09;12253283;19;20105;-88
2023/01/22 17:01:10;;;;;;;6.80;5.22;;;6.40;59.90;;;4.90;62.76;102820.56;12251987;19;20014;-87
2023/01/22 17:05:12;;;;;;;7.45;5.40;;;6.30;59.80;;;4.98;62.72;102842.16;12248471;19;20025;-88
2023/01/22 17:09:30;;;;;;;6.40;4.70;;;6.40;59.70;;;4.65;62.77;102790.31;12254019;19;20011;-88
2023/01/22 17:13:32;;;;;;;6.05;4.55;;;6.50;59.70;;;4.81;62.91;102811.06;12254068;19;20011;-88
2023/01/22 17:17:34;;;;;;;4.85;4.07;;;6.40;59.70;;;4.91;62.69;102836.09;12251521;19;20010;-88
2023/01/22 17:21:36;;;;;;;5.03;3.97;;;6.40;59.70;;;4.81;62.89;102824.88;12251134;19;20006;-88
2023/01/22 17:25:40;;;;;;;5.30;4.25;;;6.50;59.70;;;4.83;62.99;102824.84;12246737;19;20007;-88
2023/01/22 17:29:42;;;;;;;7.15;5.20;;;6.40;59.70;;;4.78;62.92;102823.97;12247311;19;20034;-87